Time;durP1;ratioP1;P1;durP2;ratioP2;P2;SDS_P1;SDS_P2;PMS_P1;PMS_P2;Temp;Humidity;BMP_temperature;BMP_pressure;BME280_temperature;BME280_humidity;BME280_pressure;Samples;Min_cycle;Max_cycle;Signal;HPM_P1;HPM_P2
2022/02/04 00:04:24;;;;;;;6.60;2.95;;;;;;;;;;4996773;28;20041;-78
2022/02/04 00:25:19;;;;;;;5.60;2.88;;;;;;;;;;5006055;28;20045;-78
2022/02/04 00:27:46;;;;;;;4.32;2.50;;;;;;;;;;5011851;28;20491;-78
2022/02/04 00:30:18;;;;;;;5.60;2.78;;;;;;;;;;5004728;28;20033;-79
2022/02/04 00:32:46;;;;;;;4.70;2.83;;;;;;;;;;5006558;28;20021;-77
2022/02/04 00:35:27;;;;;;;4.43;2.20;;;;;;;;;;5008047;28;20029;-77
2022/02/04 00:40:23;;;;;;;3.83;2.25;;;;;;;;;;5006660;28;20064;-77
2022/02/04 00:42:50;;;;;;;4.70;2.30;;;;;;;;;;5008041;28;20026;-77
2022/02/04 00:45:22;;;;;;;4.28;2.75;;;;;;;;;;5007838;28;20044;-78
2022/02/04 00:47:54;;;;;;;3.33;2.30;;;;;;;;;;5010887;28;20030;-77
2022/02/04 00:50:32;;;;;;;3.63;2.25;;;;;;;;;;5009522;28;20473;-78
2022/02/04 00:53:16;;;;;;;3.80;2.15;;;;;;;;;;5008648;28;20041;-79
2022/02/04 00:55:48;;;;;;;3.75;2.25;;;;;;;;;;5009558;28;20033;-76
2022/02/04 01:28:17;;;;;;;3.75;2.30;;;;;;;;;;5004020;28;20036;-78
2022/02/04 01:30:44;;;;;;;4.22;2.47;;;;;;;;;;5010515;28;20097;-78
2022/02/04 01:33:12;;;;;;;4.82;2.42;;;;;;;;;;5011111;28;20018;-77
2022/02/04 01:35:37;;;;;;;4.35;2.30;;;;;;;;;;5005467;28;20034;-76
2022/02/04 01:38:02;;;;;;;5.22;2.45;;;;;;;;;;5009875;28;20088;-76
2022/02/04 01:40:27;;;;;;;5.80;2.72;;;;;;;;;;5009269;28;20029;-75
2022/02/04 01:42:53;;;;;;;4.47;2.58;;;;;;;;;;5007362;28;20021;-77
2022/02/04 01:45:18;;;;;;;4.72;2.60;;;;;;;;;;5010683;28;20026;-77
2022/02/04 01:47:52;;;;;;;6.22;2.80;;;;;;;;;;5008362;28;20449;-77
2022/02/04 01:50:17;;;;;;;5.30;3.10;;;;;;;;;;5009352;28;20033;-77
2022/02/04 01:52:42;;;;;;;5.65;2.55;;;;;;;;;;5008806;28;20029;-77
2022/02/04 01:55:08;;;;;;;4.63;2.65;;;;;;;;;;5009496;28;20056;-78
2022/02/04 01:57:33;;;;;;;4.30;2.40;;;;;;;;;;5009535;28;20124;-77
2022/02/04 01:59:58;;;;;;;4.68;2.75;;;;;;;;;;5009350;28;20524;-77
2022/02/04 02:02:24;;;;;;;5.95;2.72;;;;;;;;;;5010725;28;20036;-77
2022/02/04 02:04:50;;;;;;;6.07;2.97;;;;;;;;;;5011282;28;20100;-77
2022/02/04 02:07:18;;;;;;;5.00;2.95;;;;;;;;;;5010250;28;20034;-75
2022/02/04 02:15:24;;;;;;;4.20;2.72;;;;;;;;;;4988254;28;20046;-75
2022/02/04 02:47:36;;;;;;;5.18;3.63;;;;;;;;;;5001790;28;20124;-77
2022/02/04 02:58:04;;;;;;;5.42;3.32;;;;;;;;;;5008745;28;20053;-77
2022/02/04 03:03:09;;;;;;;5.38;3.63;;;;;;;;;;5006607;28;20083;-77
2022/02/04 03:05:35;;;;;;;5.57;3.10;;;;;;;;;;5006767;28;20481;-77
2022/02/04 03:08:00;;;;;;;5.15;3.25;;;;;;;;;;5008554;28;20024;-76
2022/02/04 03:10:25;;;;;;;5.50;3.38;;;;;;;;;;5008054;28;20484;-77
2022/02/04 03:12:51;;;;;;;5.18;3.10;;;;;;;;;;5007873;28;20450;-77
2022/02/04 03:15:16;;;;;;;6.45;3.70;;;;;;;;;;5006083;28;20064;-78
2022/02/04 03:17:43;;;;;;;5.63;3.30;;;;;;;;;;5008898;28;20061;-78
2022/02/04 03:20:11;;;;;;;6.63;3.53;;;;;;;;;;5007170;28;20113;-75
2022/02/04 03:22:37;;;;;;;8.43;3.92;;;;;;;;;;5008518;28;20033;-77
2022/02/04 03:25:06;;;;;;;7.07;3.72;;;;;;;;;;5007700;28;20404;-77
2022/02/04 03:30:33;;;;;;;6.28;4.10;;;;;;;;;;4985871;28;20132;-77
2022/02/04 03:33:03;;;;;;;6.10;4.57;;;;;;;;;;4985430;28;20156;-77
2022/02/04 03:35:28;;;;;;;;;;;;;;;;;;4986114;28;20042;-76
2022/02/04 03:37:54;;;;;;;6.40;4.20;;;;;;;;;;4985544;28;19932;-77
2022/02/04 03:40:20;;;;;;;6.70;4.30;;;;;;;;;;4986112;28;21215;-77
2022/02/04 03:42:46;;;;;;;7.50;4.70;;;;;;;;;;4987310;28;20189;-78
2022/02/04 03:45:11;;;;;;;6.68;4.10;;;;;;;;;;4988275;28;20038;-78
2022/02/04 03:47:36;;;;;;;7.97;5.40;;;;;;;;;;4986180;28;20049;-77
2022/02/04 03:50:02;;;;;;;9.18;5.47;;;;;;;;;;4986090;28;20181;-76
2022/02/04 03:52:27;;;;;;;10.15;6.40;;;;;;;;;;4981475;28;20169;-75
2022/02/04 03:54:52;;;;;;;8.82;5.43;;;;;;;;;;4984839;28;20038;-76
2022/02/04 03:57:18;;;;;;;9.70;5.78;;;;;;;;;;4985782;28;20493;-77
2022/02/04 03:59:48;;;;;;;12.27;5.72;;;;;;;;;;4985252;28;20137;-77
2022/02/04 04:02:13;;;;;;;11.52;5.97;;;;;;;;;;4985457;28;20129;-76
2022/02/04 04:04:39;;;;;;;9.50;5.78;;;;;;;;;;4984910;28;20098;-77
2022/02/04 04:07:04;;;;;;;9.32;5.30;;;;;;;;;;4994145;28;20057;-77
2022/02/04 04:09:32;;;;;;;8.93;5.30;;;;;;;;;;5007527;28;20021;-76
2022/02/04 04:11:57;;;;;;;9.60;5.97;;;;;;;;;;5008209;28;20034;-78
2022/02/04 04:14:22;;;;;;;9.05;5.75;;;;;;;;;;5006633;28;20030;-78
2022/02/04 04:16:48;;;;;;;11.75;5.50;;;;;;;;;;5007451;28;20057;-78
2022/02/04 04:19:14;;;;;;;9.75;5.65;;;;;;;;;;5005414;28;20034;-77
2022/02/04 04:21:39;;;;;;;8.13;5.05;;;;;;;;;;5011438;28;20026;-78
2022/02/04 04:24:04;;;;;;;9.15;4.82;;;;;;;;;;5011642;28;20049;-76
2022/02/04 04:26:30;;;;;;;8.10;4.85;;;;;;;;;;5011189;28;20034;-78
2022/02/04 04:28:55;;;;;;;8.25;4.63;;;;;;;;;;5016965;28;20160;-78
2022/02/04 04:31:21;;;;;;;9.00;5.90;;;;;;;;;;5012715;28;20037;-78
2022/02/04 04:33:47;;;;;;;10.02;5.82;;;;;;;;;;5012228;28;20833;-77
2022/02/04 04:36:12;;;;;;;9.40;5.88;;;;;;;;;;5008344;28;20112;-77
2022/02/04 04:38:44;;;;;;;11.38;7.00;;;;;;;;;;4991442;28;20026;-76
2022/02/04 04:44:56;;;;;;;13.48;7.35;;;;;;;;;;4988912;28;20061;-76
2022/02/04 05:28:34;;;;;;;21.50;12.25;;;;;;;;;;5010250;28;20076;-76
2022/02/04 05:30:59;;;;;;;21.42;12.55;;;;;;;;;;5009007;28;20088;-76
2022/02/04 05:33:24;;;;;;;26.58;13.90;;;;;;;;;;5010867;28;20030;-76
2022/02/04 05:35:50;;;;;;;25.52;14.15;;;;;;;;;;5008819;28;20030;-74
2022/02/04 05:38:16;;;;;;;23.42;13.07;;;;;;;;;;5009335;28;20405;-75
2022/02/04 05:40:45;;;;;;;23.23;12.77;;;;;;;;;;5009740;28;20034;-75
2022/02/04 05:43:23;;;;;;;26.85;13.65;;;;;;;;;;5007851;28;20405;-74
2022/02/04 05:46:27;;;;;;;24.58;13.77;;;;;;;;;;5010662;28;20089;-74
2022/02/04 05:48:45;;;;;;;26.95;13.52;;;;;;;;;;5012101;28;20064;-75
2022/02/04 05:51:32;;;;;;;25.02;13.48;;;;;;;;;;5004288;28;20036;-75
2022/02/04 05:54:20;;;;;;;26.73;14.60;;;;;;;;;;5009173;28;20048;-74
2022/02/04 06:02:32;;;;;;;25.15;14.20;;;;;;;;;;4962556;28;20050;-75
2022/02/04 06:05:05;;;;;;;28.15;13.88;;;;;;;;;;4965954;28;20043;-76
2022/02/04 06:08:03;;;;;;;26.15;14.38;;;;;;;;;;4963413;28;20030;-75
2022/02/04 06:11:00;;;;;;;30.70;15.18;;;;;;;;;;4964252;28;20596;-76
2022/02/04 06:24:09;;;;;;;24.25;13.63;;;;;;;;;;4891928;29;20051;-75
2022/02/04 06:26:34;;;;;;;27.05;15.40;;;;;;;;;;4899249;29;20082;-74
2022/02/04 06:28:59;;;;;;;26.10;13.90;;;;;;;;;;4906009;29;20158;-74
2022/02/04 06:31:25;;;;;;;25.45;14.40;;;;;;;;;;4900867;29;20028;-74
2022/02/04 06:33:50;;;;;;;27.80;16.13;;;;;;;;;;4905567;29;20499;-74
2022/02/04 06:36:15;;;;;;;27.17;15.00;;;;;;;;;;4899396;29;20193;-75
2022/02/04 06:38:40;;;;;;;26.45;14.35;;;;;;;;;;4937074;29;20509;-73
2022/02/04 06:41:06;;;;;;;26.35;14.98;;;;;;;;;;4947714;29;20030;-75
2022/02/04 06:43:31;;;;;;;29.08;15.73;;;;;;;;;;4946614;28;20376;-76
2022/02/04 06:45:56;;;;;;;27.42;15.68;;;;;;;;;;4947804;29;20039;-74
2022/02/04 06:48:22;;;;;;;26.88;15.70;;;;;;;;;;4947724;29;21143;-75
2022/02/04 06:50:47;;;;;;;27.70;15.52;;;;;;;;;;4947583;29;20066;-76
2022/02/04 06:53:12;;;;;;;30.30;15.50;;;;;;;;;;4911333;29;1028462;-75
2022/02/04 06:55:37;;;;;;;28.17;15.35;;;;;;;;;;4974394;28;20097;-75
2022/02/04 06:58:03;;;;;;;29.00;16.63;;;;;;;;;;5008830;28;20164;-74
2022/02/04 07:00:29;;;;;;;31.17;17.15;;;;;;;;;;5003166;28;20021;-75
2022/02/04 07:02:54;;;;;;;27.80;16.48;;;;;;;;;;5008972;28;20026;-75
2022/02/04 07:05:21;;;;;;;29.92;15.88;;;;;;;;;;5009557;28;20034;-75
2022/02/04 07:07:55;;;;;;;25.10;14.55;;;;;;;;;;5009323;28;20074;-75
2022/02/04 07:10:29;;;;;;;30.20;17.00;;;;;;;;;;5012542;28;20025;-77
2022/02/04 07:13:08;;;;;;;26.98;16.30;;;;;;;;;;5006671;28;20021;-76
2022/02/04 07:20:57;;;;;;;25.92;15.35;;;;;;;;;;5008794;28;20081;-75
2022/02/04 07:23:22;;;;;;;25.52;15.45;;;;;;;;;;5009015;28;20438;-75
2022/02/04 07:25:47;;;;;;;25.05;14.82;;;;;;;;;;5007708;28;20038;-76
2022/02/04 07:28:13;;;;;;;21.55;13.93;;;;;;;;;;5008612;28;20026;-76
2022/02/04 07:30:39;;;;;;;24.98;15.40;;;;;;;;;;5008865;28;20153;-77
2022/02/04 07:33:17;;;;;;;23.70;13.75;;;;;;;;;;5008817;28;20033;-75
2022/02/04 07:41:12;;;;;;;22.80;13.95;;;;;;;;;;5005838;28;20079;-75
2022/02/04 07:43:38;;;;;;;22.33;13.73;;;;;;;;;;5009972;28;20029;-75
2022/02/04 07:46:03;;;;;;;22.17;13.52;;;;;;;;;;5008827;28;20104;-75
2022/02/04 07:48:28;;;;;;;20.63;12.85;;;;;;;;;;5009469;28;20033;-75
2022/02/04 07:50:53;;;;;;;20.90;13.20;;;;;;;;;;5014162;28;20094;-75
2022/02/04 07:53:20;;;;;;;20.60;13.98;;;;;;;;;;5008209;28;20759;-75
2022/02/04 07:55:46;;;;;;;23.73;13.82;;;;;;;;;;5008417;28;20026;-74
2022/02/04 07:58:12;;;;;;;21.02;12.85;;;;;;;;;;5006088;28;20037;-76
2022/02/04 08:00:38;;;;;;;22.23;14.02;;;;;;;;;;5012679;28;20029;-76
2022/02/04 08:03:16;;;;;;;22.88;13.82;;;;;;;;;;5008787;28;20496;-76
2022/02/04 08:05:41;;;;;;;24.10;14.27;;;;;;;;;;5008637;28;20080;-76
2022/02/04 08:08:30;;;;;;;21.88;13.63;;;;;;;;;;5008468;28;20030;-76
2022/02/04 08:14:09;;;;;;;23.23;14.55;;;;;;;;;;4986011;28;20593;-75
2022/02/04 08:17:07;;;;;;;22.45;13.70;;;;;;;;;;4986350;28;20023;-74
2022/02/04 08:24:50;;;;;;;23.60;14.60;;;;;;;;;;4983624;28;20478;-74
2022/02/04 08:32:44;;;;;;;24.33;14.85;;;;;;;;;;4986786;28;20117;-76
2022/02/04 08:37:56;;;;;;;24.58;14.90;;;;;;;;;;4986474;28;20027;-75
2022/02/04 08:51:25;;;;;;;25.38;14.85;;;;;;;;;;5000343;28;20053;-75
2022/02/04 08:54:01;;;;;;;22.77;13.52;;;;;;;;;;5006326;28;20050;-74
2022/02/04 08:56:38;;;;;;;23.13;12.95;;;;;;;;;;5010783;28;20022;-74
2022/02/04 08:59:11;;;;;;;21.25;13.13;;;;;;;;;;5008290;28;20540;-74
2022/02/04 09:01:42;;;;;;;22.10;13.98;;;;;;;;;;5008933;28;20038;-76
2022/02/04 09:04:16;;;;;;;20.58;12.95;;;;;;;;;;5010122;28;20413;-75
2022/02/04 09:06:46;;;;;;;20.55;12.32;;;;;;;;;;5011024;28;20500;-75
2022/02/04 09:09:27;;;;;;;20.48;13.10;;;;;;;;;;5011871;28;20465;-75
2022/02/04 09:12:02;;;;;;;21.83;13.70;;;;;;;;;;5011411;28;20087;-77
2022/02/04 09:17:25;;;;;;;19.70;12.35;;;;;;;;;;5007103;28;20097;-77
2022/02/04 09:24:49;;;;;;;20.98;12.88;;;;;;;;;;5008589;28;20022;-77
2022/02/04 09:27:14;;;;;;;16.58;11.60;;;;;;;;;;5009673;28;20052;-74
2022/02/04 09:29:39;;;;;;;18.60;11.65;;;;;;;;;;5011265;28;20429;-76
2022/02/04 09:32:05;;;;;;;16.58;10.70;;;;;;;;;;5010702;28;20022;-74
2022/02/04 09:34:30;;;;;;;20.52;12.57;;;;;;;;;;5010999;28;20037;-76
2022/02/04 09:36:55;;;;;;;20.23;12.05;;;;;;;;;;5011418;28;20431;-75
2022/02/04 09:39:20;;;;;;;22.08;11.90;;;;;;;;;;5011334;28;20025;-76
2022/02/04 09:41:46;;;;;;;16.77;11.05;;;;;;;;;;5011212;28;20079;-76
2022/02/04 09:44:12;;;;;;;17.30;11.30;;;;;;;;;;5013538;28;20028;-77
2022/02/04 09:46:37;;;;;;;17.50;11.27;;;;;;;;;;5009789;28;20038;-74
2022/02/04 09:49:04;;;;;;;16.13;10.60;;;;;;;;;;5010694;28;20018;-76
2022/02/04 09:51:50;;;;;;;16.67;10.73;;;;;;;;;;5009957;28;20037;-74
2022/02/04 10:12:00;;;;;;;15.60;9.35;;;;;;;;;;5010714;28;20022;-73
2022/02/04 10:14:06;;;;;;;14.68;8.88;;;;;;;;;;5009742;28;20034;-74
2022/02/04 10:16:54;;;;;;;12.35;8.93;;;;;;;;;;5003983;28;20041;-74
2022/02/04 10:22:07;;;;;;;12.57;8.23;;;;;;;;;;4987637;28;20125;-75
2022/02/04 10:24:33;;;;;;;12.65;8.60;;;;;;;;;;4971139;28;20121;-75
2022/02/04 10:27:11;;;;;;;13.40;9.00;;;;;;;;;;4987461;28;20046;-74
2022/02/04 10:29:36;;;;;;;13.48;8.80;;;;;;;;;;4988218;28;20029;-75
2022/02/04 10:32:02;;;;;;;14.48;8.60;;;;;;;;;;4992037;28;20030;-75
2022/02/04 10:34:28;;;;;;;14.82;8.73;;;;;;;;;;4990845;28;20104;-74
2022/02/04 10:37:00;;;;;;;11.88;7.93;;;;;;;;;;4987574;28;20445;-76
2022/02/04 10:39:34;;;;;;;12.90;7.63;;;;;;;;;;4987772;28;20241;-74
2022/02/04 10:42:02;;;;;;;12.85;8.20;;;;;;;;;;4987389;28;20557;-75
2022/02/04 10:44:31;;;;;;;11.50;7.45;;;;;;;;;;4987372;28;20425;-76
2022/02/04 10:47:03;;;;;;;11.18;7.45;;;;;;;;;;4987269;28;20359;-75
2022/02/04 10:49:53;;;;;;;12.38;7.95;;;;;;;;;;4987660;28;20022;-75
2022/02/04 11:00:27;;;;;;;11.57;7.40;;;;;;;;;;4947919;29;20039;-77
2022/02/04 11:03:00;;;;;;;11.90;7.50;;;;;;;;;;4949005;29;20030;-78
2022/02/04 11:08:40;;;;;;;12.02;7.15;;;;;;;;;;4910878;29;20051;-77
2022/02/04 11:11:40;;;;;;;12.88;7.10;;;;;;;;;;4910727;29;20043;-79
2022/02/04 11:31:03;;;;;;;10.00;6.45;;;;;;;;;;4927755;28;20148;-78
2022/02/04 11:36:09;;;;;;;10.18;6.88;;;;;;;;;;4967414;28;20031;-78
2022/02/04 11:52:24;;;;;;;11.02;6.50;;;;;;;;;;5009294;28;20042;-78
2022/02/04 11:54:56;;;;;;;11.07;6.75;;;;;;;;;;5008749;28;20056;-77
2022/02/04 11:57:28;;;;;;;10.07;6.18;;;;;;;;;;5002743;28;20013;-78
2022/02/04 11:59:54;;;;;;;10.20;6.60;;;;;;;;;;5004576;28;20029;-78
2022/02/04 12:02:26;;;;;;;12.57;6.97;;;;;;;;;;5009007;28;20480;-78
2022/02/04 12:07:35;;;;;;;8.65;6.20;;;;;;;;;;5008479;28;20512;-78
2022/02/04 12:10:01;;;;;;;11.27;7.00;;;;;;;;;;5008594;28;20041;-77
2022/02/04 12:12:45;;;;;;;12.45;7.22;;;;;;;;;;5008829;28;20029;-77
2022/02/04 12:17:54;;;;;;;12.32;7.25;;;;;;;;;;5009874;28;20038;-77
2022/02/04 12:20:38;;;;;;;12.23;6.93;;;;;;;;;;5008835;28;20362;-77
2022/02/04 12:23:04;;;;;;;10.93;7.40;;;;;;;;;;5008176;28;20131;-77
2022/02/04 12:26:16;;;;;;;12.15;7.63;;;;;;;;;;5007272;28;20436;-76
2022/02/04 12:28:50;;;;;;;10.68;6.75;;;;;;;;;;4986822;28;20105;-77
2022/02/04 12:31:17;;;;;;;10.68;6.75;;;;;;;;;;4990721;28;20157;-78
2022/02/04 12:33:43;;;;;;;10.45;6.75;;;;;;;;;;4986333;28;20041;-76
2022/02/04 12:36:25;;;;;;;12.40;7.82;;;;;;;;;;4986184;28;20043;-76
2022/02/04 12:38:51;;;;;;;11.18;7.03;;;;;;;;;;4969615;28;20030;-77
2022/02/04 12:41:24;;;;;;;10.60;6.45;;;;;;;;;;4988443;28;20038;-77
2022/02/04 12:43:51;;;;;;;11.27;6.68;;;;;;;;;;4990040;28;20049;-78
2022/02/04 12:46:17;;;;;;;10.80;7.35;;;;;;;;;;4989487;28;20062;-77
2022/02/04 12:48:53;;;;;;;11.18;7.45;;;;;;;;;;4989337;28;20018;-77
2022/02/04 12:51:28;;;;;;;12.25;6.75;;;;;;;;;;4989651;28;20073;-78
2022/02/04 12:53:54;;;;;;;10.52;6.55;;;;;;;;;;4989315;28;20477;-77
2022/02/04 12:56:33;;;;;;;11.63;7.35;;;;;;;;;;4988638;28;20119;-77
2022/02/04 13:02:14;;;;;;;11.40;6.95;;;;;;;;;;4965902;28;20038;-78
2022/02/04 13:07:45;;;;;;;11.00;6.90;;;;;;;;;;4967844;28;20833;-78
2022/02/04 13:10:15;;;;;;;11.30;6.88;;;;;;;;;;4966739;28;20490;-79
2022/02/04 13:12:49;;;;;;;9.55;6.53;;;;;;;;;;4953065;28;20071;-79
2022/02/04 13:15:15;;;;;;;10.35;6.28;;;;;;;;;;4970372;28;20039;-79
2022/02/04 13:17:40;;;;;;;9.95;6.45;;;;;;;;;;4969498;28;20122;-78
2022/02/04 13:20:05;;;;;;;9.07;6.53;;;;;;;;;;4965126;28;20070;-80
2022/02/04 13:22:31;;;;;;;11.50;7.70;;;;;;;;;;4967978;28;20018;-80
2022/02/04 13:25:14;;;;;;;9.30;6.50;;;;;;;;;;4968305;28;20038;-81
2022/02/04 13:27:58;;;;;;;9.55;6.50;;;;;;;;;;4969318;28;20022;-80
2022/02/04 13:30:24;;;;;;;9.60;6.57;;;;;;;;;;4968564;28;20030;-80
2022/02/04 13:32:49;;;;;;;10.18;6.72;;;;;;;;;;4965506;28;20450;-78
2022/02/04 13:35:24;;;;;;;9.50;6.15;;;;;;;;;;4968471;28;20043;-81
2022/02/04 13:37:52;;;;;;;10.38;6.78;;;;;;;;;;4992868;28;20454;-80
2022/02/04 13:40:24;;;;;;;10.13;6.50;;;;;;;;;;5009249;28;20030;-77
2022/02/04 13:42:53;;;;;;;9.20;6.40;;;;;;;;;;5011020;28;20030;-76
2022/02/04 13:45:29;;;;;;;10.40;6.57;;;;;;;;;;5010426;28;20104;-80
2022/02/04 13:48:11;;;;;;;11.93;6.97;;;;;;;;;;5010962;28;20010;-77
2022/02/04 13:50:45;;;;;;;9.20;6.20;;;;;;;;;;5009979;28;20026;-80
2022/02/04 13:53:19;;;;;;;10.05;6.70;;;;;;;;;;5010127;28;20052;-79
2022/02/04 13:58:24;;;;;;;10.15;6.90;;;;;;;;;;5009570;28;20023;-80
2022/02/04 14:03:33;;;;;;;9.40;6.38;;;;;;;;;;5010603;28;20528;-79
2022/02/04 14:06:07;;;;;;;9.00;6.00;;;;;;;;;;5010017;28;20025;-81
2022/02/04 14:08:45;;;;;;;8.77;5.85;;;;;;;;;;5010190;28;20040;-80
2022/02/04 14:11:11;;;;;;;8.63;5.82;;;;;;;;;;5008807;28;20493;-80
2022/02/04 14:13:36;;;;;;;10.57;7.10;;;;;;;;;;5007093;28;20045;-81
2022/02/04 14:16:06;;;;;;;9.63;6.32;;;;;;;;;;5008362;28;20041;-81
2022/02/04 14:18:31;;;;;;;;;;;;;;;;;;5011430;28;20037;-81
2022/02/04 14:20:56;;;;;;;9.68;6.72;;;;;;;;;;5011062;28;19913;-80
2022/02/04 14:23:22;;;;;;;12.13;6.15;;;;;;;;;;5010876;28;20022;-83
2022/02/04 14:25:51;;;;;;;9.82;6.45;;;;;;;;;;5010522;28;20416;-81
2022/02/04 14:28:22;;;;;;;9.10;6.28;;;;;;;;;;5020743;28;20036;-83
2022/02/04 14:30:50;;;;;;;9.68;6.75;;;;;;;;;;5016919;28;20018;-83
2022/02/04 14:36:12;;;;;;;13.18;7.35;;;;;;;;;;5004045;28;20594;-82
2022/02/04 14:49:58;;;;;;;7.65;5.20;;;;;;;;;;5010271;28;20072;-84
2022/02/04 14:52:31;;;;;;;7.13;5.13;;;;;;;;;;5017256;28;20048;-82
2022/02/04 15:00:31;;;;;;;7.20;4.88;;;;;;;;;;5008279;28;20037;-83
2022/02/04 15:03:14;;;;;;;8.15;5.40;;;;;;;;;;5009026;28;20084;-82
2022/02/04 15:05:44;;;;;;;9.25;5.25;;;;;;;;;;5010000;28;20390;-81
2022/02/04 15:08:14;;;;;;;7.10;4.80;;;;;;;;;;5010901;28;20032;-81
2022/02/04 15:10:40;;;;;;;8.48;4.90;;;;;;;;;;5012727;28;20013;-83
2022/02/04 15:13:11;;;;;;;8.68;5.45;;;;;;;;;;5015677;28;20026;-83
2022/02/04 15:15:36;;;;;;;8.50;5.30;;;;;;;;;;5018013;28;20053;-82
2022/02/04 15:18:02;;;;;;;6.90;4.65;;;;;;;;;;5009579;28;20072;-77
2022/02/04 15:20:27;;;;;;;6.97;4.88;;;;;;;;;;5007341;28;20091;-78
2022/02/04 15:22:52;;;;;;;7.35;5.28;;;;;;;;;;5009048;28;20053;-77
2022/02/04 15:25:21;;;;;;;8.75;5.70;;;;;;;;;;5007800;28;20041;-78
2022/02/04 15:28:16;;;;;;;8.18;5.20;;;;;;;;;;5003177;28;20075;-79
2022/02/04 15:30:39;;;;;;;7.93;4.82;;;;;;;;;;4998466;28;20022;-78
2022/02/04 15:33:04;;;;;;;9.02;5.03;;;;;;;;;;5000742;28;20481;-77
2022/02/04 15:35:31;;;;;;;8.68;5.07;;;;;;;;;;5003279;28;20032;-76
2022/02/04 15:37:56;;;;;;;13.07;5.60;;;;;;;;;;5007385;28;20393;-78
2022/02/04 15:40:21;;;;;;;7.85;5.82;;;;;;;;;;5005564;28;20025;-79
2022/02/04 15:42:55;;;;;;;8.80;5.32;;;;;;;;;;5005356;28;20065;-78
2022/02/04 16:02:30;;;;;;;10.05;5.82;;;;;;;;;;4825745;29;20142;-80
2022/02/04 16:04:56;;;;;;;7.85;5.57;;;;;;;;;;4826070;29;20461;-80
2022/02/04 16:07:22;;;;;;;8.90;5.88;;;;;;;;;;4824100;29;20070;-80
2022/02/04 16:09:52;;;;;;;8.52;5.70;;;;;;;;;;4823744;29;20082;-80
2022/02/04 16:12:50;;;;;;;11.55;6.50;;;;;;;;;;4820930;29;20132;-79
2022/02/04 16:15:21;;;;;;;12.15;6.65;;;;;;;;;;4816728;29;20085;-84
2022/02/04 16:17:54;;;;;;;11.60;6.78;;;;;;;;;;4820962;29;20135;-80
2022/02/04 16:20:28;;;;;;;10.05;6.28;;;;;;;;;;4820472;29;20046;-79
2022/02/04 16:23:03;;;;;;;9.45;6.50;;;;;;;;;;4817886;29;20466;-80
2022/02/04 16:25:43;;;;;;;11.68;6.55;;;;;;;;;;4820891;29;20125;-81
2022/02/04 16:30:52;;;;;;;10.40;6.55;;;;;;;;;;4935746;29;20075;-79
2022/02/04 16:33:17;;;;;;;9.55;6.38;;;;;;;;;;4937719;29;20039;-79
2022/02/04 16:35:42;;;;;;;10.60;6.65;;;;;;;;;;4933972;29;20035;-78
2022/02/04 16:38:09;;;;;;;10.52;6.75;;;;;;;;;;4943220;28;20044;-81
2022/02/04 16:40:41;;;;;;;12.38;7.32;;;;;;;;;;5013377;28;20025;-82
2022/02/04 16:43:07;;;;;;;12.18;6.78;;;;;;;;;;5013316;28;20026;-79
2022/02/04 16:45:32;;;;;;;10.23;6.55;;;;;;;;;;5017499;28;20068;-80
2022/02/04 16:47:57;;;;;;;11.25;7.35;;;;;;;;;;5014243;28;20030;-80
2022/02/04 16:50:24;;;;;;;10.68;6.85;;;;;;;;;;5013027;28;20386;-80
2022/02/04 16:52:50;;;;;;;11.32;7.00;;;;;;;;;;5012577;28;20034;-80
2022/02/04 16:55:16;;;;;;;10.98;7.22;;;;;;;;;;5012086;28;20086;-79
2022/02/04 16:57:42;;;;;;;13.00;7.45;;;;;;;;;;5012423;28;20121;-80
2022/02/04 17:00:20;;;;;;;11.00;6.43;;;;;;;;;;5013119;28;20389;-80
2022/02/04 17:02:45;;;;;;;10.80;6.70;;;;;;;;;;5015789;28;20097;-80
2022/02/04 17:05:10;;;;;;;11.23;7.10;;;;;;;;;;5015663;28;20022;-80
2022/02/04 17:07:38;;;;;;;10.45;7.05;;;;;;;;;;5013288;28;20026;-79
2022/02/04 17:10:04;;;;;;;11.80;7.10;;;;;;;;;;5011764;28;20021;-79
2022/02/04 17:12:40;;;;;;;12.07;7.32;;;;;;;;;;5011831;28;20032;-81
2022/02/04 17:15:05;;;;;;;11.82;7.28;;;;;;;;;;5012463;28;20385;-81
2022/02/04 17:17:30;;;;;;;11.27;7.80;;;;;;;;;;5012146;28;20034;-81
2022/02/04 17:20:11;;;;;;;15.92;8.84;;;;;;;;;;5011882;28;20054;-80
2022/02/04 17:22:38;;;;;;;14.43;8.82;;;;;;;;;;5006232;28;20048;-80
2022/02/04 17:25:08;;;;;;;12.15;7.25;;;;;;;;;;5012782;28;20029;-80
2022/02/04 17:27:33;;;;;;;12.57;7.70;;;;;;;;;;5007569;28;20041;-81
2022/02/04 17:29:59;;;;;;;14.10;8.50;;;;;;;;;;5011551;28;20026;-81
2022/02/04 17:32:26;;;;;;;13.40;7.75;;;;;;;;;;5015001;28;20022;-81
2022/02/04 17:34:51;;;;;;;12.63;7.38;;;;;;;;;;5013698;28;20018;-81
2022/02/04 17:37:17;;;;;;;13.00;7.47;;;;;;;;;;5011957;28;20053;-81
2022/02/04 17:39:42;;;;;;;11.13;6.95;;;;;;;;;;5010940;28;20053;-79
2022/02/04 17:42:08;;;;;;;12.77;7.25;;;;;;;;;;5011981;28;20028;-78
2022/02/04 17:44:36;;;;;;;12.60;7.18;;;;;;;;;;5011607;28;20049;-79
2022/02/04 17:47:02;;;;;;;10.60;6.95;;;;;;;;;;5009866;28;20477;-75
2022/02/04 17:49:35;;;;;;;11.82;7.60;;;;;;;;;;5010323;28;20022;-75
2022/02/04 17:52:15;;;;;;;13.68;7.88;;;;;;;;;;5010562;28;20029;-75
2022/02/04 17:54:50;;;;;;;16.55;7.90;;;;;;;;;;5009504;28;20452;-73
2022/02/04 17:57:20;;;;;;;12.85;7.47;;;;;;;;;;5009266;28;20591;-73
2022/02/04 18:00:08;;;;;;;11.43;7.03;;;;;;;;;;5007970;28;20121;-75
2022/02/04 18:02:41;;;;;;;12.30;6.63;;;;;;;;;;5008022;28;20044;-77
2022/02/04 18:07:51;;;;;;;12.43;6.95;;;;;;;;;;5009717;28;20064;-74
2022/02/04 18:10:16;;;;;;;10.48;6.70;;;;;;;;;;5009558;28;20032;-75
2022/02/04 18:12:42;;;;;;;11.02;6.72;;;;;;;;;;5009693;28;20760;-75
2022/02/04 18:15:07;;;;;;;10.85;6.85;;;;;;;;;;5011003;28;20061;-75
2022/02/04 18:17:32;;;;;;;10.43;6.75;;;;;;;;;;5009559;28;20072;-75
2022/02/04 18:19:57;;;;;;;11.05;6.65;;;;;;;;;;5009189;28;20506;-75
2022/02/04 18:22:23;;;;;;;11.50;6.43;;;;;;;;;;5010341;28;20036;-75
2022/02/04 18:24:48;;;;;;;10.65;6.60;;;;;;;;;;5008450;28;20018;-75
2022/02/04 18:27:13;;;;;;;12.65;7.35;;;;;;;;;;5024687;28;20060;-76
2022/02/04 18:29:43;;;;;;;11.90;6.68;;;;;;;;;;5011165;28;20025;-75
2022/02/04 18:32:08;;;;;;;13.48;6.93;;;;;;;;;;5010387;28;20032;-75
2022/02/04 18:34:34;;;;;;;9.73;6.30;;;;;;;;;;5009604;28;20034;-77
2022/02/04 18:37:01;;;;;;;9.65;6.35;;;;;;;;;;5007621;28;20030;-77
2022/02/04 18:42:22;;;;;;;7.22;4.90;;;;;;;;;;5011125;28;20030;-75
2022/02/04 18:44:54;;;;;;;6.47;3.83;;;;;;;;;;5005295;28;20057;-76
2022/02/04 18:47:33;;;;;;;5.20;3.40;;;;;;;;;;5009416;28;20025;-77
2022/02/04 18:50:05;;;;;;;4.40;2.72;;;;;;;;;;5008824;28;20029;-74
2022/02/04 18:57:37;;;;;;;3.75;2.10;;;;;;;;;;5003641;28;20030;-75
2022/02/04 19:00:11;;;;;;;3.10;1.52;;;;;;;;;;5007687;28;20056;-74
2022/02/04 19:02:39;;;;;;;2.85;1.67;;;;;;;;;;5007311;28;20073;-77
2022/02/04 19:05:10;;;;;;;3.30;1.60;;;;;;;;;;5010005;28;20026;-75
2022/02/04 19:07:47;;;;;;;2.45;1.35;;;;;;;;;;5011171;28;20487;-75
2022/02/04 19:10:15;;;;;;;3.20;1.40;;;;;;;;;;5008450;28;20021;-75
2022/02/04 19:13:07;;;;;;;1.25;0.98;;;;;;;;;;5008521;28;20404;-76
2022/02/04 19:18:28;;;;;;;1.67;1.25;;;;;;;;;;5006532;28;20404;-78
2022/02/04 19:21:05;;;;;;;2.20;1.35;;;;;;;;;;5003811;28;20167;-75
2022/02/04 19:23:31;;;;;;;3.58;1.75;;;;;;;;;;5005513;28;20030;-74
2022/02/04 19:25:59;;;;;;;2.75;1.50;;;;;;;;;;5009092;28;20367;-76
2022/02/04 19:28:27;;;;;;;2.90;1.60;;;;;;;;;;5008204;28;20538;-75
2022/02/04 19:30:54;;;;;;;2.97;1.60;;;;;;;;;;5008245;28;20496;-75
2022/02/04 19:33:21;;;;;;;3.40;1.52;;;;;;;;;;5006939;28;20145;-75
2022/02/04 19:35:47;;;;;;;3.20;1.58;;;;;;;;;;5007262;28;20030;-75
2022/02/04 19:38:12;;;;;;;3.63;1.27;;;;;;;;;;5004142;28;20022;-74
2022/02/04 19:40:42;;;;;;;2.00;1.17;;;;;;;;;;5008212;28;20030;-76
2022/02/04 19:43:08;;;;;;;2.15;1.05;;;;;;;;;;5007744;28;20135;-77
2022/02/04 19:45:41;;;;;;;1.67;0.95;;;;;;;;;;5008230;28;20073;-75
2022/02/04 19:48:18;;;;;;;1.73;1.00;;;;;;;;;;5003087;28;20025;-76
2022/02/04 19:50:58;;;;;;;2.42;0.88;;;;;;;;;;5008080;28;20037;-76
2022/02/04 20:23:35;;;;;;;1.08;0.60;;;;;;;;;;4985524;28;20717;-78
2022/02/04 20:25:50;;;;;;;1.30;0.50;;;;;;;;;;4986503;28;20038;-77
2022/02/04 20:28:17;;;;;;;1.35;0.60;;;;;;;;;;4985420;28;20039;-75
2022/02/04 20:30:44;;;;;;;0.57;0.38;;;;;;;;;;4985842;28;20023;-75
2022/02/04 20:33:10;;;;;;;0.80;0.47;;;;;;;;;;4989897;28;20105;-75
2022/02/04 20:35:35;;;;;;;1.05;0.68;;;;;;;;;;4986547;28;20117;-74
2022/02/04 20:38:01;;;;;;;1.05;0.50;;;;;;;;;;4986026;28;20113;-75
2022/02/04 20:40:31;;;;;;;1.33;0.82;;;;;;;;;;4983869;28;20069;-77
2022/02/04 20:42:57;;;;;;;0.95;0.60;;;;;;;;;;4982729;28;20027;-75
2022/02/04 20:45:23;;;;;;;0.95;0.50;;;;;;;;;;4983991;28;20057;-76
2022/02/04 20:47:53;;;;;;;1.15;0.65;;;;;;;;;;4989745;28;20109;-78
2022/02/04 20:50:18;;;;;;;1.77;0.80;;;;;;;;;;4987637;28;20026;-74
2022/02/04 20:52:43;;;;;;;1.13;0.60;;;;;;;;;;4985127;28;20397;-76
2022/02/04 20:55:09;;;;;;;0.82;0.73;;;;;;;;;;4985243;28;20053;-75
2022/02/04 20:57:36;;;;;;;0.90;0.60;;;;;;;;;;4985810;28;20221;-74
2022/02/04 21:00:03;;;;;;;1.20;0.70;;;;;;;;;;4998121;28;20112;-78
2022/02/04 21:02:29;;;;;;;1.00;0.75;;;;;;;;;;5010502;28;20053;-77